createdAt,value
2023-04-18T03:59:18.833Z,100241.84
2023-04-18T04:02:22.705Z,100250.00
2023-04-18T04:05:25.931Z,100255.19
2023-04-18T04:08:28.804Z,100258.50
2023-04-18T04:11:32.441Z,100261.81
2023-04-18T04:14:35.165Z,100260.22
2023-04-18T04:17:38.579Z,100261.72
2023-04-18T04:20:41.470Z,100272.69
2023-04-18T04:23:46.283Z,100271.59
2023-04-18T04:26:50.796Z,100279.03
2023-04-18T04:29:54.266Z,100279.75
2023-04-18T04:32:57.033Z,100282.72
2023-04-18T04:36:01.292Z,100279.75
2023-04-18T04:39:06.698Z,100291.69
2023-04-18T04:46:40.324Z,100286.50
2023-04-18T04:49:46.168Z,100301.53
2023-04-18T04:52:49.954Z,100293.03
2023-04-18T04:55:53.872Z,100291.16
2023-04-18T04:58:58.454Z,100293.84
2023-04-18T05:02:02.095Z,100296.03
2023-04-18T05:05:06.067Z,100303.62
2023-04-18T05:08:09.037Z,100294.84
2023-04-18T05:11:11.873Z,100296.12
2023-04-18T05:14:16.056Z,100293.91
2023-04-18T05:17:18.854Z,100299.44
2023-04-18T05:20:21.862Z,100300.88
2023-04-18T05:23:24.498Z,100300.81
2023-04-18T05:26:27.455Z,100306.28
2023-04-18T05:29:30.120Z,100308.28
2023-04-18T05:32:33.235Z,100319.34
2023-04-18T05:35:35.892Z,100312.31
2023-04-18T05:38:38.840Z,100312.72
2023-04-18T05:41:41.506Z,100313.31
2023-04-18T05:44:44.840Z,100313.03
2023-04-18T05:47:47.532Z,100317.88
2023-04-18T05:50:50.573Z,100320.75
2023-04-18T05:53:53.187Z,100316.47
2023-04-18T05:56:57.259Z,100316.00
2023-04-18T05:59:59.904Z,100320.31
2023-04-18T06:03:03.251Z,100321.31
2023-04-18T06:06:06.521Z,100321.19
2023-04-18T06:09:09.102Z,100321.06
2023-04-18T06:12:12.080Z,100319.69
2023-04-18T06:15:14.774Z,100323.62
2023-04-18T06:18:17.768Z,100326.38
2023-04-18T06:21:21.292Z,100325.81
2023-04-18T06:24:24.147Z,100323.44
2023-04-18T06:27:31.414Z,100331.22
2023-04-18T06:30:35.058Z,100333.75
2023-04-18T06:33:38.102Z,100330.75
2023-04-18T06:36:41.054Z,100340.69
2023-04-18T06:39:43.715Z,100330.50
2023-04-18T06:42:46.848Z,100333.19
2023-04-18T06:45:49.524Z,100341.06
2023-04-18T06:48:52.612Z,100344.56
2023-04-18T06:51:55.460Z,100333.88
2023-04-18T06:54:58.895Z,100342.78
2023-04-18T06:58:01.686Z,100343.44
2023-04-18T07:01:04.761Z,100344.50
2023-04-18T07:04:07.646Z,100349.50
2023-04-18T07:07:11.056Z,100349.09
2023-04-18T07:10:13.744Z,100345.53
2023-04-18T07:13:16.707Z,100345.31
2023-04-18T07:16:19.903Z,100348.25
2023-04-18T07:19:22.940Z,100347.41
2023-04-18T07:22:26.166Z,100348.25
2023-04-18T07:25:29.140Z,100344.72
2023-04-18T07:28:33.050Z,100351.16
2023-04-18T07:31:38.397Z,100352.41
2023-04-18T07:34:41.476Z,100356.19
2023-04-18T07:37:44.621Z,100353.62
2023-04-18T07:40:47.464Z,100359.50
2023-04-18T07:43:50.455Z,100363.69
2023-04-18T07:46:53.443Z,100363.69
2023-04-18T07:49:56.861Z,100371.41
2023-04-18T07:52:59.618Z,100370.56
2023-04-18T07:56:03.736Z,100364.09
2023-04-18T07:59:06.742Z,100381.19
2023-04-18T08:02:09.799Z,100383.44
2023-04-18T08:05:13.097Z,100382.44
2023-04-18T08:08:16.882Z,100384.94
2023-04-18T08:11:21.181Z,100376.41
2023-04-18T08:14:24.283Z,100380.16
2023-04-18T08:17:27.348Z,100389.13
2023-04-18T08:20:30.077Z,100383.31
2023-04-18T08:23:33.057Z,100379.50
2023-04-18T08:26:35.803Z,100375.28
2023-04-18T08:29:38.984Z,100376.09
2023-04-18T08:32:42.160Z,100382.19
2023-04-18T08:35:45.265Z,100379.97
2023-04-18T08:38:50.039Z,100380.22
2023-04-18T08:41:59.738Z,100382.22
2023-04-18T08:45:02.729Z,100376.37
2023-04-18T08:48:06.360Z,100384.03
2023-04-18T08:51:09.454Z,100388.22
2023-04-18T08:54:13.008Z,100390.31
2023-04-18T08:57:17.775Z,100385.38
2023-04-18T09:00:22.581Z,100383.88
2023-04-18T09:03:52.010Z,100383.06
2023-04-18T09:06:55.076Z,100390.16
2023-04-18T09:09:58.236Z,100395.16
2023-04-18T09:13:05.642Z,100393.47
2023-04-18T09:16:08.594Z,100392.31
2023-04-18T09:19:18.717Z,100380.06
2023-04-18T09:22:22.014Z,100393.53
2023-04-18T09:25:40.126Z,100390.84
2023-04-18T09:28:53.957Z,100390.22
2023-04-18T09:32:01.318Z,100398.03
2023-04-18T09:35:05.559Z,100392.44
2023-04-18T09:38:08.651Z,100387.88
2023-04-18T09:41:13.022Z,100395.97
2023-04-18T09:44:17.678Z,100388.03
2023-04-18T09:47:20.704Z,100386.37
2023-04-18T09:50:23.751Z,100384.28
2023-04-18T09:53:28.424Z,100385.81
2023-04-18T09:56:32.793Z,100383.69
2023-04-18T10:00:17.788Z,100379.63
2023-04-18T10:03:25.875Z,100374.44
2023-04-18T10:06:28.938Z,100367.16
2023-04-18T10:09:34.093Z,100375.94
2023-04-18T10:12:38.616Z,100374.88
2023-04-18T10:15:44.101Z,100380.50
2023-04-18T10:18:49.092Z,100368.81
2023-04-18T10:22:02.244Z,100370.81
2023-04-18T10:25:06.255Z,100381.06
2023-04-18T10:28:09.978Z,100370.34
2023-04-18T10:31:12.891Z,100378.03
2023-04-18T10:34:18.166Z,100381.50
2023-04-18T10:37:20.989Z,100372.47
2023-04-18T10:40:34.299Z,100374.66
2023-04-18T10:44:15.573Z,100368.72
2023-04-18T10:47:20.043Z,100377.13
2023-04-18T10:50:23.157Z,100361.63
2023-04-18T10:53:26.057Z,100358.53
2023-04-18T10:56:29.119Z,100358.63
2023-04-18T10:59:33.913Z,100364.19
2023-04-18T11:02:39.170Z,100363.13
2023-04-18T11:05:42.248Z,100358.13
2023-04-18T11:08:45.496Z,100361.94
2023-04-18T11:12:04.095Z,100352.28
2023-04-18T11:15:11.769Z,100356.66
2023-04-18T11:18:14.815Z,100361.47
2023-04-18T11:21:18.164Z,100357.25
2023-04-18T11:24:24.955Z,100360.81
2023-04-18T11:27:29.621Z,100367.72
2023-04-18T11:30:37.313Z,100365.78
2023-04-18T11:33:39.994Z,100357.66
2023-04-18T11:36:42.988Z,100368.12
2023-04-18T11:39:45.853Z,100369.75
2023-04-18T11:42:49.045Z,100354.53
2023-04-18T11:45:59.670Z,100361.50
2023-04-18T11:49:02.930Z,100359.56
2023-04-18T11:52:13.525Z,100361.72
2023-04-18T11:55:19.634Z,100361.12
2023-04-18T11:58:31.225Z,100361.28
2023-04-18T12:01:34.249Z,100359.81
2023-04-18T12:04:54.146Z,100356.44
2023-04-18T12:08:06.210Z,100351.72
2023-04-18T12:11:09.501Z,100352.50
2023-04-18T12:14:21.903Z,100352.16
2023-04-18T12:17:28.754Z,100349.28
2023-04-18T12:20:36.907Z,100342.53
2023-04-18T12:23:42.522Z,100343.00
2023-04-18T12:26:45.818Z,100342.06
2023-04-18T12:29:48.780Z,100343.00
2023-04-18T12:32:58.335Z,100335.00
2023-04-18T12:36:01.324Z,100337.59
2023-04-18T12:39:04.098Z,100350.69
2023-04-18T12:42:07.107Z,100356.22
2023-04-18T12:45:11.279Z,100353.62
2023-04-18T12:48:14.264Z,100354.78
2023-04-18T12:51:16.884Z,100358.50
2023-04-18T12:54:20.247Z,100365.03
2023-04-18T12:57:22.832Z,100358.09
2023-04-18T13:00:28.504Z,100351.00
2023-04-18T13:03:32.023Z,100345.00
2023-04-18T13:06:35.748Z,100340.25
2023-04-18T13:09:40.287Z,100331.69
2023-04-18T13:12:43.630Z,100331.94
2023-04-18T13:15:48.439Z,100340.47
2023-04-18T13:18:51.425Z,100336.06
2023-04-18T13:21:53.963Z,100343.81
2023-04-18T13:24:57.335Z,100330.72
2023-04-18T13:28:00.913Z,100337.59
2023-04-18T13:31:04.346Z,100344.53
2023-04-18T13:34:07.143Z,100336.91
2023-04-18T13:37:10.262Z,100331.84
2023-04-18T13:40:13.044Z,100340.53
2023-04-18T13:43:16.020Z,100342.88
2023-04-18T13:46:18.773Z,100340.25
2023-04-18T13:49:21.984Z,100333.84
2023-04-18T13:52:26.065Z,100338.28
2023-04-18T13:55:29.017Z,100329.47
2023-04-18T13:58:31.692Z,100336.88
2023-04-18T14:01:34.924Z,100333.34
2023-04-18T14:04:38.255Z,100333.59
2023-04-18T14:07:41.360Z,100329.59
2023-04-18T14:10:44.444Z,100329.09
2023-04-18T14:13:47.351Z,100331.25
2023-04-18T14:16:50.303Z,100323.00
2023-04-18T14:19:53.029Z,100324.84
2023-04-18T14:22:55.976Z,100321.25
2023-04-18T14:25:58.671Z,100319.84
2023-04-18T14:29:01.884Z,100313.81
2023-04-18T14:32:05.777Z,100334.56
2023-04-18T14:35:10.307Z,100322.91
2023-04-18T14:38:13.179Z,100324.47
2023-04-18T14:41:16.786Z,100319.91
2023-04-18T14:44:20.059Z,100317.75
2023-04-18T14:47:24.390Z,100326.78
2023-04-18T14:50:27.687Z,100323.84
2023-04-18T14:53:30.760Z,100332.19
2023-04-18T14:56:33.405Z,100339.19
2023-04-18T14:59:36.365Z,100337.91
2023-04-18T15:02:39.735Z,100341.47
2023-04-18T15:05:46.442Z,100338.56
2023-04-18T15:08:49.066Z,100340.03
2023-04-18T15:11:52.352Z,100338.19
2023-04-18T15:14:55.038Z,100328.69
2023-04-18T15:17:57.963Z,100336.88
2023-04-18T15:21:01.044Z,100336.94
2023-04-18T15:24:04.204Z,100339.00
2023-04-18T15:27:09.203Z,100340.72
2023-04-18T15:30:13.463Z,100340.41
2023-04-18T15:33:19.093Z,100343.59
2023-04-18T15:36:22.290Z,100336.25
2023-04-18T15:39:25.193Z,100341.87
2023-04-18T15:42:29.852Z,100337.88
2023-04-18T15:45:33.501Z,100342.22
2023-04-18T15:48:36.575Z,100346.75
2023-04-18T15:51:41.268Z,100351.56
2023-04-18T15:54:48.380Z,100354.44
